Quantico MCAF, Turner field Quantico US
ICAO: KNYG
IATA: NYG
Category: Medium
Scheduled Services: No

Elevation: 10 ft
TransAlt. 18000 ft.

Airport Communications:
POTOMAC APP/DEP:124.65
ARRIVAL:127.05
ATIS:26.315
GND:121.75
PMSV METRO/BASE OPS:35.53
TWR:118.6

KNYG Zoom In..

Runways:

(A) RW 02 length 4250 ft width 200 ft
---- / hdg 24

(B) RW 20 length 4250 ft width 200 ft
---- / hdg 204

Location; KNYG
Day. 26 / Time. 11.56 Zulu
* Altimeter: 30.23
* Temperature: 17° c. 62.6°f.
* Wind from: 000° Speed 00 kn.
Dewpoint: 16° c.
Visibility: 1 m.
Clouds: Overcast 200 ft.
Conditions: Mist.

KNYG 261156Z AUTO 00000KT 1 1/4SM BR OVC002 17/16 A3023 RMK AO2 SLP236 T01670161 10172 20144 51007 $


Wind - Calm.

 
 
jpsmedia worldairports.se 2020   terms of use